createdAt,value
2023-05-24T00:00:45.142Z,2.40
2023-05-24T00:03:15.419Z,3.00
2023-05-24T00:05:43.969Z,2.47
2023-05-24T00:08:11.473Z,2.55
2023-05-24T00:10:39.209Z,2.20
2023-05-24T00:13:06.962Z,2.92
2023-05-24T00:15:34.085Z,2.30
2023-05-24T00:18:01.440Z,2.35
2023-05-24T00:20:28.746Z,2.47
2023-05-24T00:22:55.958Z,3.03
2023-05-24T00:25:23.232Z,3.13
2023-05-24T00:27:50.939Z,4.10
2023-05-24T00:30:18.205Z,3.17
2023-05-24T00:32:45.542Z,3.03
2023-05-24T00:35:12.720Z,3.47
2023-05-24T00:37:41.977Z,2.60
2023-05-24T00:40:10.037Z,3.05
2023-05-24T00:42:37.508Z,2.67
2023-05-24T00:45:05.024Z,3.08
2023-05-24T00:47:33.187Z,2.88
2023-05-24T00:50:00.679Z,2.78
2023-05-24T00:52:27.878Z,3.00
2023-05-24T00:54:55.229Z,2.53
2023-05-24T00:57:23.968Z,3.13
2023-05-24T00:59:54.499Z,2.75
2023-05-24T01:02:22.317Z,3.25
2023-05-24T01:04:49.500Z,2.88
2023-05-24T01:07:32.697Z,2.72
2023-05-24T01:10:22.260Z,3.10
2023-05-24T01:13:04.274Z,3.03
2023-05-24T01:15:51.103Z,2.63
2023-05-24T01:18:30.317Z,3.25
2023-05-24T01:21:07.080Z,3.05
2023-05-24T01:24:02.365Z,2.90
2023-05-24T01:26:42.390Z,2.22
2023-05-24T01:29:10.350Z,3.10
2023-05-24T01:31:37.988Z,3.05
2023-05-24T01:34:05.144Z,2.25
2023-05-24T01:36:32.348Z,3.22
2023-05-24T01:38:59.520Z,4.25
2023-05-24T01:41:47.550Z,2.65
2023-05-24T01:44:37.686Z,3.67
2023-05-24T01:47:41.535Z,3.30
2023-05-24T01:50:28.139Z,3.95
2023-05-24T01:52:58.806Z,2.72
2023-05-24T01:55:28.250Z,3.55
2023-05-24T01:58:00.705Z,3.30
2023-05-24T02:00:29.130Z,4.10
2023-05-24T02:02:57.775Z,3.13
2023-05-24T02:05:25.122Z,3.25
2023-05-24T02:07:52.460Z,4.50
2023-05-24T02:10:19.871Z,4.25
2023-05-24T02:12:47.026Z,4.10
2023-05-24T02:15:15.371Z,3.53
2023-05-24T02:17:43.368Z,3.40
2023-05-24T02:20:13.398Z,5.18
2023-05-24T02:22:41.519Z,4.05
2023-05-24T02:25:08.845Z,3.88
2023-05-24T02:27:36.128Z,3.83
2023-05-24T02:30:03.492Z,4.25
2023-05-24T02:32:31.403Z,3.97
2023-05-24T02:35:01.990Z,2.95
2023-05-24T02:37:29.109Z,4.40
2023-05-24T02:39:56.306Z,5.32
2023-05-24T02:42:23.478Z,5.50
2023-05-24T02:44:52.577Z,4.20
2023-05-24T02:47:20.051Z,4.03
2023-05-24T02:49:47.293Z,4.28
2023-05-24T02:52:14.807Z,3.25
2023-05-24T02:54:41.956Z,5.55
2023-05-24T02:57:09.111Z,4.15
2023-05-24T02:59:36.548Z,4.35
2023-05-24T03:02:03.801Z,4.15
2023-05-24T03:04:30.980Z,4.40
2023-05-24T03:06:58.128Z,4.45
2023-05-24T03:09:25.466Z,4.47
2023-05-24T03:11:54.452Z,4.70
2023-05-24T03:14:25.116Z,3.90
2023-05-24T03:16:52.394Z,4.53
2023-05-24T03:19:19.712Z,4.43
2023-05-24T03:21:46.886Z,4.88
2023-05-24T03:24:14.594Z,4.63
2023-05-24T03:26:41.701Z,5.15
2023-05-24T03:29:08.879Z,4.10
2023-05-24T03:31:36.501Z,4.93
2023-05-24T03:34:03.651Z,3.88
2023-05-24T03:36:30.926Z,3.95
2023-05-24T03:38:59.131Z,3.00
2023-05-24T03:41:27.624Z,4.20
2023-05-24T03:43:54.843Z,3.90
2023-05-24T03:46:22.599Z,5.10
2023-05-24T03:48:49.937Z,3.95
2023-05-24T03:51:17.161Z,4.68
2023-05-24T03:53:45.744Z,3.85
2023-05-24T03:56:12.859Z,3.92
2023-05-24T03:58:40.014Z,4.40
2023-05-24T04:01:08.199Z,4.35
2023-05-24T04:03:35.412Z,5.00
2023-05-24T04:06:02.700Z,4.38
2023-05-24T04:08:29.903Z,3.90
2023-05-24T04:10:56.998Z,5.38
2023-05-24T04:13:24.164Z,4.18
2023-05-24T04:15:51.386Z,4.45
2023-05-24T04:18:18.661Z,4.00
2023-05-24T04:20:45.866Z,3.00
2023-05-24T04:23:12.990Z,3.97
2023-05-24T04:25:40.177Z,4.38
2023-05-24T04:28:08.467Z,4.35
2023-05-24T04:30:36.927Z,4.75
2023-05-24T04:33:04.201Z,4.05
2023-05-24T04:35:31.459Z,4.63
2023-05-24T04:37:59.793Z,4.53
2023-05-24T04:40:27.079Z,4.18
2023-05-24T04:42:54.193Z,5.45
2023-05-24T04:45:21.444Z,4.28
2023-05-24T04:47:48.603Z,4.25
2023-05-24T04:50:15.994Z,4.22
2023-05-24T04:52:43.291Z,4.50
2023-05-24T04:55:10.618Z,4.32
2023-05-24T04:57:37.702Z,4.97
2023-05-24T05:00:07.411Z,4.80
2023-05-24T05:02:34.675Z,4.93
2023-05-24T05:05:02.070Z,4.72
2023-05-24T05:07:29.229Z,5.18
2023-05-24T05:09:56.963Z,6.00
2023-05-24T05:12:24.106Z,4.55
2023-05-24T05:14:51.881Z,4.78
2023-05-24T05:17:18.980Z,5.00
2023-05-24T05:19:46.152Z,5.35
2023-05-24T05:22:13.312Z,4.43
2023-05-24T05:24:40.429Z,5.18
2023-05-24T05:27:07.818Z,5.28
2023-05-24T05:29:34.971Z,5.65
2023-05-24T05:32:02.121Z,4.25
2023-05-24T05:34:29.208Z,4.28
2023-05-24T05:36:56.397Z,4.20
2023-05-24T05:39:23.504Z,3.95
2023-05-24T05:41:51.011Z,4.60
2023-05-24T05:44:18.539Z,4.03
2023-05-24T05:46:46.392Z,3.67
2023-05-24T05:49:15.508Z,4.00
2023-05-24T05:51:42.713Z,4.85
2023-05-24T05:54:14.401Z,4.97
2023-05-24T05:56:45.800Z,4.60
2023-05-24T05:59:13.176Z,4.25
2023-05-24T06:01:41.133Z,4.75
2023-05-24T06:04:08.394Z,4.20
2023-05-24T06:06:36.205Z,4.72
2023-05-24T06:09:03.573Z,4.50
2023-05-24T06:11:30.679Z,4.82
2023-05-24T06:13:57.845Z,4.40
2023-05-24T06:16:25.018Z,4.45
2023-05-24T06:19:05.567Z,4.57
2023-05-24T06:21:33.948Z,3.53
2023-05-24T06:24:02.792Z,3.40
2023-05-24T06:26:30.382Z,3.65
2023-05-24T06:28:57.484Z,3.22
2023-05-24T06:31:24.787Z,4.35
2023-05-24T06:34:03.918Z,3.78
2023-05-24T06:36:41.231Z,2.95
2023-05-24T06:39:11.993Z,2.80
2023-05-24T06:41:39.875Z,3.10
2023-05-24T06:44:07.693Z,3.28
2023-05-24T06:46:35.125Z,2.90
2023-05-24T06:49:03.194Z,4.07
2023-05-24T06:51:31.220Z,4.18
2023-05-24T06:53:58.418Z,3.78
2023-05-24T06:56:26.926Z,3.70
2023-05-24T06:58:54.104Z,3.22
2023-05-24T07:01:21.256Z,2.17
2023-05-24T07:03:48.456Z,4.13
2023-05-24T07:06:16.325Z,3.75
2023-05-24T07:08:43.496Z,2.35
2023-05-24T07:11:10.699Z,2.63
2023-05-24T07:13:37.890Z,2.75
2023-05-24T07:16:07.197Z,2.88
2023-05-24T07:18:34.433Z,2.90
2023-05-24T07:21:01.719Z,2.80
2023-05-24T07:23:29.203Z,3.17
2023-05-24T07:25:56.646Z,3.10
2023-05-24T07:28:23.970Z,3.78
2023-05-24T07:30:52.327Z,2.83
2023-05-24T07:33:19.966Z,2.78
2023-05-24T07:35:51.392Z,3.35
2023-05-24T07:38:18.842Z,3.80
2023-05-24T07:40:46.218Z,3.00
2023-05-24T07:43:13.484Z,3.15
2023-05-24T07:45:41.137Z,1.77
2023-05-24T07:48:08.614Z,2.45
2023-05-24T07:50:36.405Z,3.00
2023-05-24T07:53:05.271Z,3.60
2023-05-24T07:55:32.436Z,3.05
2023-05-24T07:57:59.637Z,3.10
2023-05-24T08:00:26.962Z,3.38
2023-05-24T08:02:54.298Z,3.05
2023-05-24T08:05:22.245Z,2.53
2023-05-24T08:07:49.432Z,2.88
2023-05-24T08:10:16.905Z,3.00
2023-05-24T08:12:44.759Z,3.25
2023-05-24T08:15:11.934Z,2.70
2023-05-24T08:17:39.392Z,2.75
2023-05-24T08:20:12.586Z,3.10
2023-05-24T08:22:39.737Z,2.97
2023-05-24T08:25:07.636Z,2.35
2023-05-24T08:27:34.861Z,3.13
2023-05-24T08:30:02.085Z,2.65
2023-05-24T08:32:29.484Z,2.85
2023-05-24T08:35:06.645Z,3.30
2023-05-24T08:37:38.133Z,2.97
2023-05-24T08:40:05.855Z,2.45
2023-05-24T08:42:33.453Z,2.60
2023-05-24T08:45:08.521Z,3.40
2023-05-24T08:47:36.860Z,2.70
2023-05-24T08:50:05.489Z,2.22
2023-05-24T08:52:33.130Z,2.67
2023-05-24T08:55:00.704Z,2.80
2023-05-24T08:57:28.447Z,3.38
2023-05-24T08:59:56.227Z,2.55
2023-05-24T09:02:24.382Z,2.95
2023-05-24T09:04:53.138Z,2.30
2023-05-24T09:07:25.016Z,2.42
2023-05-24T09:10:01.133Z,2.38
2023-05-24T09:12:38.195Z,2.65
2023-05-24T09:15:07.609Z,2.75
2023-05-24T09:17:36.444Z,2.78
2023-05-24T09:20:07.530Z,3.10
2023-05-24T09:22:38.135Z,3.13
2023-05-24T09:25:09.609Z,3.03
2023-05-24T09:27:40.457Z,3.13
2023-05-24T09:30:12.883Z,2.83
2023-05-24T09:32:41.430Z,2.40
2023-05-24T09:35:09.836Z,2.58
2023-05-24T09:37:38.830Z,3.10
2023-05-24T09:40:07.971Z,2.65
2023-05-24T09:42:35.206Z,2.67
2023-05-24T09:45:09.536Z,3.42
2023-05-24T09:47:39.444Z,2.60
2023-05-24T09:50:13.223Z,3.03
2023-05-24T09:55:22.930Z,2.80
2023-05-24T09:57:53.459Z,2.80
2023-05-24T10:00:24.057Z,2.13
2023-05-24T10:03:08.206Z,2.72
2023-05-24T10:05:35.905Z,3.13
2023-05-24T10:08:05.184Z,2.78
2023-05-24T10:10:33.665Z,3.13
2023-05-24T10:13:02.036Z,3.50
2023-05-24T10:15:30.783Z,3.40
2023-05-24T10:17:59.166Z,3.40
2023-05-24T10:20:26.824Z,3.40
2023-05-24T10:22:59.839Z,2.78
2023-05-24T10:25:28.624Z,2.95
2023-05-24T10:27:58.720Z,2.65
2023-05-24T10:30:34.464Z,2.38
2023-05-24T10:33:02.818Z,3.05
2023-05-24T10:35:31.674Z,3.00
2023-05-24T10:37:59.734Z,2.63
2023-05-24T10:40:27.003Z,2.80
2023-05-24T10:42:54.816Z,1.98
2023-05-24T10:45:24.703Z,2.47
2023-05-24T10:47:53.764Z,1.92
2023-05-24T10:50:22.338Z,1.90
2023-05-24T10:52:49.756Z,2.13
2023-05-24T10:55:19.570Z,2.20
2023-05-24T10:57:47.474Z,2.60
2023-05-24T11:03:01.557Z,2.25
2023-05-24T11:05:55.419Z,2.50
2023-05-24T11:08:31.015Z,2.33
2023-05-24T11:11:24.402Z,2.83
2023-05-24T11:13:57.511Z,2.25
2023-05-24T11:16:41.211Z,2.60
2023-05-24T11:19:13.258Z,1.88
2023-05-24T11:21:52.276Z,2.17
2023-05-24T11:24:21.404Z,2.10
2023-05-24T11:26:50.324Z,2.55
2023-05-24T11:29:19.544Z,2.42
2023-05-24T11:31:54.202Z,2.60
2023-05-24T11:34:22.179Z,1.98
2023-05-24T11:36:50.110Z,2.65
2023-05-24T11:39:18.120Z,2.58
2023-05-24T11:41:47.505Z,2.22
2023-05-24T11:44:19.589Z,2.45
2023-05-24T11:46:47.438Z,2.35
2023-05-24T11:49:17.622Z,2.50
2023-05-24T11:51:45.449Z,2.25
2023-05-24T11:54:12.719Z,2.60
2023-05-24T11:56:40.167Z,2.40
2023-05-24T11:59:07.922Z,1.77
2023-05-24T12:01:35.283Z,2.65
2023-05-24T12:04:02.598Z,2.35
2023-05-24T12:06:38.207Z,2.05
2023-05-24T12:09:08.635Z,2.42
2023-05-24T12:11:39.970Z,2.78
2023-05-24T12:14:17.901Z,1.30
2023-05-24T12:16:46.569Z,2.05
2023-05-24T12:19:32.468Z,2.58
2023-05-24T12:22:01.876Z,2.05
2023-05-24T12:24:31.378Z,2.53
2023-05-24T12:27:06.985Z,2.47
2023-05-24T12:29:40.301Z,3.22
2023-05-24T12:32:13.150Z,2.75
2023-05-24T12:34:43.489Z,2.45
2023-05-24T12:37:12.403Z,2.97
2023-05-24T12:39:42.373Z,2.78
2023-05-24T12:42:11.536Z,1.98
2023-05-24T12:44:39.282Z,2.72
2023-05-24T12:47:08.852Z,2.42
2023-05-24T12:49:36.343Z,2.55
2023-05-24T12:52:03.753Z,2.33
2023-05-24T12:54:31.203Z,2.53
2023-05-24T12:57:03.396Z,2.53
2023-05-24T12:59:30.980Z,2.47
2023-05-24T13:01:58.249Z,2.55
2023-05-24T13:04:30.581Z,2.03
2023-05-24T13:06:57.805Z,2.85
2023-05-24T13:09:26.285Z,2.67
2023-05-24T13:11:54.286Z,2.85
2023-05-24T13:14:22.277Z,3.08
2023-05-24T13:16:49.689Z,2.40
2023-05-24T13:19:17.356Z,1.80
2023-05-24T13:21:45.635Z,2.30
2023-05-24T13:24:16.446Z,2.35
2023-05-24T13:26:44.542Z,3.33
2023-05-24T13:31:42.061Z,2.55
2023-05-24T13:34:11.275Z,2.13
2023-05-24T13:36:39.260Z,2.75
2023-05-24T13:41:40.657Z,2.63
2023-05-24T13:44:08.635Z,2.47
2023-05-24T13:46:36.649Z,2.95
2023-05-24T13:49:04.532Z,2.67
2023-05-24T13:51:31.975Z,3.13
2023-05-24T13:53:59.700Z,2.25
2023-05-24T13:56:32.600Z,1.77
2023-05-24T13:59:01.617Z,2.08
2023-05-24T14:01:29.117Z,1.88
2023-05-24T14:03:56.503Z,2.45
2023-05-24T14:06:23.755Z,2.35
2023-05-24T14:08:51.297Z,2.30
2023-05-24T14:11:19.659Z,3.05
2023-05-24T14:16:17.330Z,2.35
2023-05-24T14:18:45.795Z,2.40
2023-05-24T14:21:12.922Z,2.83
2023-05-24T14:23:39.978Z,2.90
2023-05-24T14:26:07.665Z,3.28
2023-05-24T14:28:34.844Z,2.88
2023-05-24T14:31:02.408Z,2.95
2023-05-24T14:33:29.658Z,2.72
2023-05-24T14:35:57.173Z,2.00
2023-05-24T14:38:24.982Z,2.30
2023-05-24T14:40:52.803Z,1.80
2023-05-24T14:43:20.176Z,2.60
2023-05-24T14:45:47.582Z,2.08
2023-05-24T14:48:16.699Z,2.72
2023-05-24T14:50:43.849Z,2.65
2023-05-24T14:53:15.084Z,1.92
2023-05-24T14:55:43.708Z,2.63
2023-05-24T14:58:15.092Z,3.65
2023-05-24T15:00:43.311Z,3.50
2023-05-24T15:03:14.965Z,2.20
2023-05-24T15:05:43.107Z,3.00
2023-05-24T15:08:11.433Z,3.65
2023-05-24T15:10:39.406Z,3.50
2023-05-24T15:13:06.695Z,2.42
2023-05-24T15:15:33.845Z,1.70
2023-05-24T15:18:01.141Z,1.95
2023-05-24T15:20:28.647Z,2.00
2023-05-24T15:22:55.897Z,1.58
2023-05-24T15:25:23.040Z,1.90
2023-05-24T15:27:50.224Z,1.80
2023-05-24T15:30:19.763Z,2.10
2023-05-24T15:32:47.498Z,2.72
2023-05-24T15:35:15.304Z,3.33
2023-05-24T15:37:42.793Z,2.45
2023-05-24T15:40:11.240Z,2.50
2023-05-24T15:42:39.548Z,2.88
2023-05-24T15:45:07.411Z,3.00
2023-05-24T15:47:39.854Z,2.42
2023-05-24T15:50:09.086Z,2.17
2023-05-24T15:52:36.702Z,1.90
2023-05-24T15:55:04.603Z,1.73
2023-05-24T15:57:31.811Z,2.28
2023-05-24T15:59:58.943Z,1.95
2023-05-24T16:02:26.909Z,1.75
2023-05-24T16:04:54.463Z,1.60
2023-05-24T16:07:22.320Z,1.88
2023-05-24T16:09:52.798Z,2.10
2023-05-24T16:12:20.243Z,2.42
2023-05-24T16:14:47.459Z,2.03
2023-05-24T16:17:17.483Z,2.20
2023-05-24T16:19:49.364Z,2.30
2023-05-24T16:22:16.819Z,1.95
2023-05-24T16:24:44.910Z,1.95
2023-05-24T16:27:12.080Z,3.28
2023-05-24T16:29:39.426Z,2.50
2023-05-24T16:32:07.666Z,1.90
2023-05-24T16:34:44.797Z,2.53
2023-05-24T16:37:22.372Z,2.67
2023-05-24T16:39:49.530Z,2.50
2023-05-24T16:42:16.713Z,2.10
2023-05-24T16:44:43.904Z,2.10
2023-05-24T16:47:11.821Z,1.92
2023-05-24T16:49:39.034Z,2.47
2023-05-24T16:52:06.800Z,2.03
2023-05-24T16:54:33.885Z,2.33
2023-05-24T16:57:01.641Z,2.42
2023-05-24T16:59:28.893Z,2.03
2023-05-24T17:01:56.284Z,1.73
2023-05-24T17:04:23.463Z,2.55
2023-05-24T17:06:50.876Z,2.30
2023-05-24T17:09:18.016Z,2.17
2023-05-24T17:11:45.495Z,2.35
2023-05-24T17:14:12.648Z,2.30
2023-05-24T17:16:39.875Z,2.22
2023-05-24T17:19:07.048Z,2.40
2023-05-24T17:21:34.197Z,2.58
2023-05-24T17:24:01.324Z,3.00
2023-05-24T17:26:28.624Z,2.35
2023-05-24T17:28:56.379Z,3.92
2023-05-24T17:31:23.596Z,2.25
2023-05-24T17:33:51.116Z,2.75
2023-05-24T17:36:18.504Z,3.95
2023-05-24T17:38:45.714Z,2.90
2023-05-24T17:41:12.907Z,2.53
2023-05-24T17:43:40.595Z,3.95
2023-05-24T17:46:09.449Z,2.83
2023-05-24T17:48:37.728Z,2.25
2023-05-24T17:51:08.210Z,2.58
2023-05-24T17:53:37.290Z,2.97
2023-05-24T17:56:05.520Z,2.42
2023-05-24T17:58:35.736Z,2.08
2023-05-24T18:01:05.686Z,2.20
2023-05-24T18:03:34.182Z,2.22
2023-05-24T18:06:01.412Z,2.25
2023-05-24T18:08:28.637Z,2.88
2023-05-24T18:10:55.804Z,2.10
2023-05-24T18:13:22.999Z,2.40
2023-05-24T18:15:51.225Z,2.30
2023-05-24T18:18:18.720Z,2.30
2023-05-24T18:20:45.927Z,2.72
2023-05-24T18:23:13.838Z,2.53
2023-05-24T18:25:41.302Z,2.88
2023-05-24T18:28:08.663Z,2.38
2023-05-24T18:30:35.802Z,2.67
2023-05-24T18:33:07.909Z,2.78
2023-05-24T18:35:35.821Z,2.90
2023-05-24T18:38:04.796Z,3.47
2023-05-24T18:40:31.965Z,2.38
2023-05-24T18:42:59.131Z,2.95
2023-05-24T18:45:26.296Z,2.22
2023-05-24T18:47:54.222Z,2.47
2023-05-24T18:50:23.448Z,2.92
2023-05-24T18:52:50.877Z,3.00
2023-05-24T18:55:18.466Z,2.90
2023-05-24T18:57:45.605Z,3.17
2023-05-24T19:00:14.081Z,2.92
2023-05-24T19:02:41.490Z,2.22
2023-05-24T19:05:09.404Z,2.70
2023-05-24T19:07:37.271Z,2.08
2023-05-24T19:10:05.417Z,2.08
2023-05-24T19:12:32.775Z,2.33
2023-05-24T19:15:02.946Z,2.70
2023-05-24T19:17:30.310Z,2.78
2023-05-24T19:19:57.596Z,2.45
2023-05-24T19:22:26.383Z,3.25
2023-05-24T19:24:54.003Z,2.88
2023-05-24T19:27:21.859Z,2.00
2023-05-24T19:29:49.930Z,2.53
2023-05-24T19:32:25.841Z,2.78
2023-05-24T19:35:22.813Z,3.30
2023-05-24T19:37:55.712Z,2.58
2023-05-24T19:40:27.920Z,2.97
2023-05-24T19:42:55.287Z,2.85
2023-05-24T19:45:26.012Z,3.22
2023-05-24T19:47:53.447Z,3.05
2023-05-24T19:50:20.985Z,3.58
2023-05-24T19:52:48.208Z,2.67
2023-05-24T19:55:16.183Z,2.88
2023-05-24T19:57:45.998Z,3.00
2023-05-24T20:00:14.285Z,3.30
2023-05-24T20:02:41.713Z,2.88
2023-05-24T20:05:09.414Z,2.85
2023-05-24T20:07:37.548Z,3.55
2023-05-24T20:10:05.661Z,3.05
2023-05-24T20:12:34.757Z,2.88
2023-05-24T20:15:02.226Z,3.28
2023-05-24T20:17:29.917Z,3.15
2023-05-24T20:19:57.392Z,2.92
2023-05-24T20:22:24.706Z,3.28
2023-05-24T20:24:55.348Z,3.70
2023-05-24T20:27:22.741Z,3.35
2023-05-24T20:29:50.117Z,3.70
2023-05-24T20:32:17.645Z,4.53
2023-05-24T20:34:45.639Z,3.00
2023-05-24T20:37:13.132Z,3.95
2023-05-24T20:39:40.481Z,3.08
2023-05-24T20:42:11.201Z,3.55
2023-05-24T20:44:38.356Z,2.80
2023-05-24T20:47:08.585Z,3.35
2023-05-24T20:49:36.952Z,3.55
2023-05-24T20:52:04.850Z,3.50
2023-05-24T20:54:32.243Z,3.83
2023-05-24T20:56:59.960Z,3.08
2023-05-24T20:59:27.211Z,3.10
2023-05-24T21:01:54.532Z,3.38
2023-05-24T21:04:22.612Z,3.58
2023-05-24T21:06:49.983Z,3.88
2023-05-24T21:09:17.356Z,3.50
2023-05-24T21:11:45.724Z,3.65
2023-05-24T21:14:14.056Z,3.55
2023-05-24T21:16:41.435Z,3.08
2023-05-24T21:19:09.026Z,3.58
2023-05-24T21:21:38.035Z,2.67
2023-05-24T21:24:05.571Z,3.08
2023-05-24T21:26:35.826Z,3.47
2023-05-24T21:29:03.392Z,3.85
2023-05-24T21:31:32.130Z,3.53
2023-05-24T21:33:59.697Z,4.00
2023-05-24T21:36:29.252Z,3.53
2023-05-24T21:38:57.128Z,2.85
2023-05-24T21:41:24.647Z,3.15
2023-05-24T21:43:55.234Z,2.90
2023-05-24T21:46:22.527Z,3.65
2023-05-24T21:48:53.783Z,3.65
2023-05-24T21:51:30.955Z,3.50
2023-05-24T21:54:01.937Z,3.20
2023-05-24T21:56:30.105Z,3.17
2023-05-24T21:58:58.279Z,3.03
2023-05-24T22:01:26.425Z,3.70
2023-05-24T22:03:55.465Z,3.10
2023-05-24T22:06:24.414Z,2.85
2023-05-24T22:09:12.319Z,3.97
2023-05-24T22:11:41.483Z,3.03
2023-05-24T22:14:10.558Z,3.15
2023-05-24T22:16:44.250Z,3.33
2023-05-24T22:19:16.992Z,3.50
2023-05-24T22:21:51.027Z,3.55
2023-05-24T22:24:18.609Z,3.30
2023-05-24T22:26:47.284Z,2.78
2023-05-24T22:29:15.768Z,3.88
2023-05-24T22:31:44.821Z,3.65
2023-05-24T22:34:13.976Z,3.72
2023-05-24T22:36:42.173Z,3.83
2023-05-24T22:39:11.282Z,3.13
2023-05-24T22:41:38.568Z,3.00
2023-05-24T22:44:06.441Z,3.30
2023-05-24T22:46:34.451Z,3.28
2023-05-24T22:49:03.232Z,2.97
2023-05-24T22:51:30.507Z,3.97
2023-05-24T22:53:57.879Z,3.75
2023-05-24T22:56:27.038Z,3.65
2023-05-24T22:58:54.508Z,3.70
2023-05-24T23:01:22.365Z,3.90
2023-05-24T23:03:49.523Z,3.63
2023-05-24T23:06:17.912Z,3.72
2023-05-24T23:08:48.258Z,4.03
2023-05-24T23:11:17.451Z,3.63
2023-05-24T23:13:46.627Z,3.45
2023-05-24T23:16:18.227Z,3.92
2023-05-24T23:18:46.086Z,3.92
2023-05-24T23:21:15.278Z,3.53
2023-05-24T23:23:44.272Z,4.30
2023-05-24T23:26:11.767Z,3.78
2023-05-24T23:28:39.098Z,3.90
2023-05-24T23:31:09.950Z,3.38
2023-05-24T23:33:37.199Z,4.15
2023-05-24T23:36:04.704Z,4.47
2023-05-24T23:38:32.034Z,4.20
2023-05-24T23:40:59.460Z,4.25
2023-05-24T23:43:26.679Z,4.25
2023-05-24T23:45:53.860Z,4.22
2023-05-24T23:48:23.086Z,4.60
2023-05-24T23:50:54.415Z,4.63
2023-05-24T23:53:22.174Z,4.28
2023-05-24T23:55:49.298Z,4.55
2023-05-24T23:58:16.989Z,4.97
